createdAt,value
2022-08-24T00:00:24.784Z,1014.44
2022-08-24T00:01:24.751Z,1014.45
2022-08-24T00:02:24.839Z,1014.43
2022-08-24T00:03:25.255Z,1014.50
2022-08-24T00:04:25.723Z,1014.46
2022-08-24T00:05:25.539Z,1014.50
2022-08-24T00:06:24.698Z,1014.51
2022-08-24T00:07:27.551Z,1014.48
2022-08-24T00:08:24.676Z,1014.49
2022-08-24T00:09:25.083Z,1014.47
2022-08-24T00:10:24.656Z,1014.52
2022-08-24T00:11:24.720Z,1014.49
2022-08-24T00:12:24.637Z,1014.49
2022-08-24T00:13:24.642Z,1014.51
2022-08-24T00:14:24.607Z,1014.53
2022-08-24T00:15:24.601Z,1014.51
2022-08-24T00:16:24.667Z,1014.54
2022-08-24T00:17:24.573Z,1014.54
2022-08-24T00:18:24.590Z,1014.52
2022-08-24T00:19:24.551Z,1014.51
2022-08-24T00:20:24.547Z,1014.49
2022-08-24T00:21:24.557Z,1014.50
2022-08-24T00:22:25.044Z,1014.48
2022-08-24T00:23:24.506Z,1014.47
2022-08-24T00:24:24.496Z,1014.51
2022-08-24T00:25:24.483Z,1014.49
2022-08-24T00:26:28.831Z,1014.54
2022-08-24T00:27:24.467Z,1014.58
2022-08-24T00:28:24.457Z,1014.62
2022-08-24T00:29:24.436Z,1014.66
2022-08-24T00:30:24.439Z,1014.62
2022-08-24T00:31:24.504Z,1014.65
2022-08-24T00:32:24.407Z,1014.64
2022-08-24T00:33:24.394Z,1014.63
2022-08-24T00:34:24.383Z,1014.66
2022-08-24T00:35:24.378Z,1014.57
2022-08-24T00:36:24.407Z,1014.64
2022-08-24T00:37:24.363Z,1014.63
2022-08-24T00:38:24.357Z,1014.60
2022-08-24T00:39:24.611Z,1014.54
2022-08-24T00:40:24.403Z,1014.60
2022-08-24T00:41:24.458Z,1014.57
2022-08-24T00:42:38.313Z,1014.59
2022-08-24T00:43:25.054Z,1014.58
2022-08-24T00:44:24.270Z,1014.58
2022-08-24T00:45:24.548Z,1014.58
2022-08-24T00:46:24.257Z,1014.59
2022-08-24T00:47:24.239Z,1014.60
2022-08-24T00:48:24.232Z,1014.60
2022-08-24T00:49:24.216Z,1014.58
2022-08-24T00:50:24.206Z,1014.59
2022-08-24T00:51:24.218Z,1014.59
2022-08-24T00:52:24.181Z,1014.61
2022-08-24T00:53:24.170Z,1014.56
2022-08-24T00:54:24.294Z,1014.59
2022-08-24T00:55:24.150Z,1014.56
2022-08-24T00:56:30.288Z,1014.56
2022-08-24T00:57:24.131Z,1014.54
2022-08-24T00:58:24.173Z,1014.58
2022-08-24T00:59:24.122Z,1014.60
2022-08-24T01:00:24.094Z,1014.55
2022-08-24T01:01:24.192Z,1014.58
2022-08-24T01:02:24.113Z,1014.57
2022-08-24T01:03:24.057Z,1014.57
2022-08-24T01:04:24.048Z,1014.59
2022-08-24T01:05:24.032Z,1014.61
2022-08-24T01:06:24.047Z,1014.57
2022-08-24T01:07:24.020Z,1014.64
2022-08-24T01:08:24.000Z,1014.60
2022-08-24T01:09:23.994Z,1014.59
2022-08-24T01:10:23.982Z,1014.60
2022-08-24T01:11:23.988Z,1014.57
2022-08-24T01:12:23.977Z,1014.60
2022-08-24T01:13:24.271Z,1014.61
2022-08-24T01:14:23.935Z,1014.62
2022-08-24T01:15:23.923Z,1014.60
2022-08-24T01:16:23.980Z,1014.60
2022-08-24T01:17:23.929Z,1014.60
2022-08-24T01:18:23.884Z,1014.59
2022-08-24T01:19:23.875Z,1014.58
2022-08-24T01:20:23.862Z,1014.60
2022-08-24T01:21:23.877Z,1014.57
2022-08-24T01:22:23.841Z,1014.60
2022-08-24T01:23:23.830Z,1014.62
2022-08-24T01:24:23.817Z,1014.56
2022-08-24T01:25:23.810Z,1014.61
2022-08-24T01:26:23.795Z,1014.59
2022-08-24T01:27:27.752Z,1014.62
2022-08-24T01:28:27.448Z,1014.61
2022-08-24T01:29:23.973Z,1014.62
2022-08-24T01:30:26.491Z,1014.62
2022-08-24T01:31:24.825Z,1014.62
2022-08-24T01:32:23.729Z,1014.64
2022-08-24T01:33:23.710Z,1014.59
2022-08-24T01:34:23.730Z,1014.62
2022-08-24T01:35:23.690Z,1014.64
2022-08-24T01:36:28.227Z,1014.64
2022-08-24T01:37:24.675Z,1014.64
2022-08-24T01:38:23.681Z,1014.65
2022-08-24T01:39:23.671Z,1014.66
2022-08-24T01:40:23.703Z,1014.69
2022-08-24T01:41:28.255Z,1014.65
2022-08-24T01:42:24.620Z,1014.66
2022-08-24T01:43:24.568Z,1014.69
2022-08-24T01:44:23.625Z,1014.68
2022-08-24T01:45:23.578Z,1014.70
2022-08-24T01:46:23.604Z,1014.65
2022-08-24T01:47:23.778Z,1014.66
2022-08-24T01:48:23.544Z,1014.69
2022-08-24T01:49:23.556Z,1014.70
2022-08-24T01:50:23.527Z,1014.72
2022-08-24T01:51:23.511Z,1014.71
2022-08-24T01:52:23.520Z,1014.70
2022-08-24T01:53:23.563Z,1014.76
2022-08-24T01:54:23.492Z,1014.75
2022-08-24T01:55:23.463Z,1014.69
2022-08-24T01:56:23.458Z,1014.62
2022-08-24T01:57:23.466Z,1014.64
2022-08-24T01:58:23.441Z,1014.65
2022-08-24T01:59:23.437Z,1014.63
2022-08-24T02:00:24.079Z,1014.65
2022-08-24T02:01:23.464Z,1014.61
2022-08-24T02:02:23.435Z,1014.64
2022-08-24T02:03:27.665Z,1014.61
2022-08-24T02:04:24.367Z,1014.62
2022-08-24T02:05:23.352Z,1014.65
2022-08-24T02:06:23.350Z,1014.67
2022-08-24T02:07:23.327Z,1014.66
2022-08-24T02:08:23.349Z,1014.65
2022-08-24T02:09:23.321Z,1014.64
2022-08-24T02:10:23.299Z,1014.67
2022-08-24T02:11:23.292Z,1014.73
2022-08-24T02:12:23.275Z,1014.73
2022-08-24T02:13:23.300Z,1014.71
2022-08-24T02:14:23.253Z,1014.73
2022-08-24T02:15:23.250Z,1014.70
2022-08-24T02:16:23.280Z,1014.73
2022-08-24T02:17:23.253Z,1014.75
2022-08-24T02:18:23.205Z,1014.74
2022-08-24T02:19:23.202Z,1014.76
2022-08-24T02:20:23.187Z,1014.78
2022-08-24T02:21:23.175Z,1014.74
2022-08-24T02:22:23.221Z,1014.73
2022-08-24T02:23:23.418Z,1014.71
2022-08-24T02:24:23.145Z,1014.70
2022-08-24T02:25:23.135Z,1014.70
2022-08-24T02:26:23.141Z,1014.71
2022-08-24T02:27:23.115Z,1014.72
2022-08-24T02:28:23.100Z,1014.69
2022-08-24T02:29:23.088Z,1014.71
2022-08-24T02:30:23.094Z,1014.69
2022-08-24T02:31:23.168Z,1014.68
2022-08-24T02:32:23.052Z,1014.71
2022-08-24T02:33:23.040Z,1014.71
2022-08-24T02:34:23.049Z,1014.70
2022-08-24T02:35:23.020Z,1014.73
2022-08-24T02:36:26.306Z,1014.71
2022-08-24T02:37:23.002Z,1014.65
2022-08-24T02:38:23.921Z,1014.68
2022-08-24T02:39:23.040Z,1014.71
2022-08-24T02:40:23.319Z,1014.66
2022-08-24T02:41:22.993Z,1014.65
2022-08-24T02:42:22.949Z,1014.65
2022-08-24T02:43:22.949Z,1014.65
2022-08-24T02:44:22.963Z,1014.61
2022-08-24T02:45:22.910Z,1014.65
2022-08-24T02:46:22.980Z,1014.67
2022-08-24T02:47:22.882Z,1014.70
2022-08-24T02:48:23.876Z,1014.68
2022-08-24T02:49:22.883Z,1014.68
2022-08-24T02:50:22.852Z,1014.70
2022-08-24T02:51:22.901Z,1014.67
2022-08-24T02:52:22.824Z,1014.70
2022-08-24T02:53:22.827Z,1014.66
2022-08-24T02:54:22.822Z,1014.66
2022-08-24T02:55:23.761Z,1014.65
2022-08-24T02:56:22.783Z,1014.67
2022-08-24T02:57:22.776Z,1014.65
2022-08-24T02:58:24.891Z,1014.62
2022-08-24T02:59:22.751Z,1014.57
2022-08-24T03:00:22.743Z,1014.59
2022-08-24T03:01:24.079Z,1014.61
2022-08-24T03:02:23.753Z,1014.60
2022-08-24T03:03:22.853Z,1014.61
2022-08-24T03:04:22.727Z,1014.61
2022-08-24T03:05:22.690Z,1014.60
2022-08-24T03:06:22.683Z,1014.59
2022-08-24T03:07:22.683Z,1014.62
2022-08-24T03:08:22.753Z,1014.64
2022-08-24T03:09:23.405Z,1014.64
2022-08-24T03:10:22.625Z,1014.63
2022-08-24T03:11:25.744Z,1014.67
2022-08-24T03:12:44.946Z,1014.64
2022-08-24T03:13:22.591Z,1014.65
2022-08-24T03:14:22.595Z,1014.61
2022-08-24T03:15:22.578Z,1014.63
2022-08-24T03:16:22.564Z,1014.65
2022-08-24T03:17:27.486Z,1014.62
2022-08-24T03:18:24.709Z,1014.62
2022-08-24T03:19:22.522Z,1014.61
2022-08-24T03:20:22.518Z,1014.60
2022-08-24T03:21:22.525Z,1014.61
2022-08-24T03:22:22.486Z,1014.58
2022-08-24T03:23:22.477Z,1014.65
2022-08-24T03:24:22.464Z,1014.62
2022-08-24T03:25:22.483Z,1014.60
2022-08-24T03:26:22.464Z,1014.62
2022-08-24T03:27:22.477Z,1014.58
2022-08-24T03:28:24.100Z,1014.60
2022-08-24T03:29:23.916Z,1014.59
2022-08-24T03:30:22.395Z,1014.56
2022-08-24T03:31:22.387Z,1014.59
2022-08-24T03:32:22.411Z,1014.63
2022-08-24T03:33:22.364Z,1014.67
2022-08-24T03:34:22.393Z,1014.66
2022-08-24T03:36:40.284Z,1014.65
2022-08-24T03:37:40.271Z,1014.68
2022-08-24T03:38:40.252Z,1014.66
2022-08-24T03:39:40.274Z,1014.66
2022-08-24T03:40:40.271Z,1014.66
2022-08-24T03:41:40.223Z,1014.65
2022-08-24T03:42:40.216Z,1014.69
2022-08-24T03:43:40.199Z,1014.67
2022-08-24T03:44:40.204Z,1014.68
2022-08-24T03:45:40.242Z,1014.66
2022-08-24T03:46:40.164Z,1014.68
2022-08-24T03:47:40.155Z,1014.69
2022-08-24T03:48:40.150Z,1014.67
2022-08-24T03:49:40.223Z,1014.66
2022-08-24T03:50:40.119Z,1014.70
2022-08-24T03:51:40.106Z,1014.71
2022-08-24T03:52:40.103Z,1014.73
2022-08-24T03:53:40.087Z,1014.74
2022-08-24T03:54:40.656Z,1014.73
2022-08-24T03:55:40.064Z,1014.72
2022-08-24T03:56:40.060Z,1014.76
2022-08-24T03:57:40.042Z,1014.74
2022-08-24T03:58:42.809Z,1014.73
2022-08-24T03:59:44.008Z,1014.71
2022-08-24T04:00:41.006Z,1014.72
2022-08-24T04:01:40.058Z,1014.72
2022-08-24T04:02:40.028Z,1014.72
2022-08-24T04:03:39.994Z,1014.73
2022-08-24T04:04:40.034Z,1014.80
2022-08-24T04:05:39.957Z,1014.79
2022-08-24T04:06:40.014Z,1014.79
2022-08-24T04:07:39.938Z,1014.82
2022-08-24T04:08:39.935Z,1014.83
2022-08-24T04:09:39.911Z,1014.88
2022-08-24T04:10:39.894Z,1014.82
2022-08-24T04:11:41.504Z,1014.87
2022-08-24T04:12:39.899Z,1014.85
2022-08-24T04:13:39.936Z,1014.87
2022-08-24T04:14:39.844Z,1014.92
2022-08-24T04:15:39.839Z,1014.91
2022-08-24T04:16:39.894Z,1014.87
2022-08-24T04:17:40.042Z,1014.89
2022-08-24T04:18:39.802Z,1014.91
2022-08-24T04:19:39.792Z,1014.91
2022-08-24T04:20:39.793Z,1014.93
2022-08-24T04:21:39.779Z,1014.93
2022-08-24T04:22:39.793Z,1014.96
2022-08-24T04:23:46.820Z,1014.95
2022-08-24T04:24:40.736Z,1014.97
2022-08-24T04:25:39.796Z,1014.98
2022-08-24T04:26:45.802Z,1014.97
2022-08-24T04:27:40.725Z,1015.00
2022-08-24T04:28:39.701Z,1014.99
2022-08-24T04:29:39.686Z,1015.01
2022-08-24T04:30:39.691Z,1015.01
2022-08-24T04:31:39.764Z,1015.01
2022-08-24T04:32:39.652Z,1014.99
2022-08-24T04:33:39.636Z,1015.00
2022-08-24T04:34:39.622Z,1014.99
2022-08-24T04:35:39.642Z,1014.97
2022-08-24T04:36:39.860Z,1014.97
2022-08-24T04:37:39.602Z,1015.00
2022-08-24T04:38:39.585Z,1014.96
2022-08-24T04:39:39.592Z,1015.04
2022-08-24T04:40:39.715Z,1015.03
2022-08-24T04:41:39.550Z,1015.08
2022-08-24T04:42:39.536Z,1015.03
2022-08-24T04:43:39.526Z,1014.99
2022-08-24T04:44:42.369Z,1014.98
2022-08-24T04:45:39.562Z,1015.01
2022-08-24T04:46:39.495Z,1014.99
2022-08-24T04:47:39.487Z,1015.02
2022-08-24T04:48:39.465Z,1015.01
2022-08-24T04:49:39.459Z,1015.01
2022-08-24T04:50:39.692Z,1015.00
2022-08-24T04:51:40.014Z,1014.99
2022-08-24T04:52:39.418Z,1015.03
2022-08-24T04:53:40.299Z,1015.03
2022-08-24T04:54:39.401Z,1015.07
2022-08-24T04:55:39.384Z,1015.03
2022-08-24T04:56:39.377Z,1015.06
2022-08-24T04:57:40.019Z,1015.07
2022-08-24T04:58:39.392Z,1015.08
2022-08-24T04:59:39.345Z,1015.09
2022-08-24T05:00:39.362Z,1015.08
2022-08-24T05:01:39.322Z,1015.07
2022-08-24T05:02:44.563Z,1015.13
2022-08-24T05:03:40.419Z,1015.10
2022-08-24T05:04:39.278Z,1015.13
2022-08-24T05:05:39.279Z,1015.12
2022-08-24T05:06:39.253Z,1015.09
2022-08-24T05:07:39.266Z,1015.17
2022-08-24T05:08:39.256Z,1015.15
2022-08-24T05:09:39.224Z,1015.17
2022-08-24T05:10:39.212Z,1015.16
2022-08-24T05:11:39.231Z,1015.14
2022-08-24T05:12:39.187Z,1015.16
2022-08-24T05:13:39.204Z,1015.16
2022-08-24T05:14:40.299Z,1015.22
2022-08-24T05:15:39.169Z,1015.22
2022-08-24T05:16:39.282Z,1015.25
2022-08-24T05:17:40.156Z,1015.25
2022-08-24T05:18:39.121Z,1015.29
2022-08-24T05:19:39.112Z,1015.32
2022-08-24T05:20:39.099Z,1015.28
2022-08-24T05:21:40.141Z,1015.30
2022-08-24T05:22:39.099Z,1015.32
2022-08-24T05:23:39.079Z,1015.34
2022-08-24T05:24:39.059Z,1015.33
2022-08-24T05:25:39.041Z,1015.33
2022-08-24T05:26:39.079Z,1015.34
2022-08-24T05:27:39.374Z,1015.38
2022-08-24T05:28:39.012Z,1015.40
2022-08-24T05:29:39.068Z,1015.35
2022-08-24T05:30:42.514Z,1015.35
2022-08-24T05:31:39.075Z,1015.36
2022-08-24T05:32:38.967Z,1015.37
2022-08-24T05:33:39.094Z,1015.36
2022-08-24T05:34:38.947Z,1015.36
2022-08-24T05:35:38.933Z,1015.33
2022-08-24T05:36:38.973Z,1015.32
2022-08-24T05:37:38.912Z,1015.33
2022-08-24T05:38:38.898Z,1015.32
2022-08-24T05:39:38.897Z,1015.33
2022-08-24T05:40:38.884Z,1015.30
2022-08-24T05:41:38.866Z,1015.29
2022-08-24T05:42:39.882Z,1015.32
2022-08-24T05:43:38.847Z,1015.33
2022-08-24T05:44:39.064Z,1015.35
2022-08-24T05:45:38.841Z,1015.37
2022-08-24T05:46:38.858Z,1015.38
2022-08-24T05:47:38.807Z,1015.45
2022-08-24T05:48:39.725Z,1015.41
2022-08-24T05:49:41.559Z,1015.44
2022-08-24T05:50:38.840Z,1015.42
2022-08-24T05:51:38.757Z,1015.44
2022-08-24T05:52:38.743Z,1015.47
2022-08-24T05:53:38.729Z,1015.41
2022-08-24T05:54:38.721Z,1015.41
2022-08-24T05:55:38.733Z,1015.44
2022-08-24T05:56:38.694Z,1015.49
2022-08-24T05:57:38.686Z,1015.48
2022-08-24T05:58:38.698Z,1015.48
2022-08-24T05:59:38.672Z,1015.47
2022-08-24T06:00:38.657Z,1015.48
2022-08-24T06:01:44.544Z,1015.47
2022-08-24T06:02:39.784Z,1015.49
2022-08-24T06:03:38.657Z,1015.47
2022-08-24T06:04:38.637Z,1015.48
2022-08-24T06:05:38.595Z,1015.53
2022-08-24T06:06:38.580Z,1015.56
2022-08-24T06:07:38.719Z,1015.48
2022-08-24T06:08:41.385Z,1015.50
2022-08-24T06:09:38.565Z,1015.49
2022-08-24T06:10:38.587Z,1015.48
2022-08-24T06:11:38.541Z,1015.52
2022-08-24T06:12:38.537Z,1015.47
2022-08-24T06:13:38.512Z,1015.46
2022-08-24T06:14:38.493Z,1015.45
2022-08-24T06:15:38.501Z,1015.48
2022-08-24T06:16:38.562Z,1015.45
2022-08-24T06:17:38.686Z,1015.43
2022-08-24T06:18:38.812Z,1015.50
2022-08-24T06:19:38.443Z,1015.47
2022-08-24T06:20:38.437Z,1015.52
2022-08-24T06:21:38.421Z,1015.52
2022-08-24T06:22:38.703Z,1015.50
2022-08-24T06:23:38.399Z,1015.54
2022-08-24T06:24:38.996Z,1015.54
2022-08-24T06:25:38.382Z,1015.53
2022-08-24T06:26:38.389Z,1015.53
2022-08-24T06:27:38.357Z,1015.57
2022-08-24T06:28:38.360Z,1015.59
2022-08-24T06:29:38.338Z,1015.60
2022-08-24T06:30:38.318Z,1015.56
2022-08-24T06:31:39.777Z,1015.58
2022-08-24T06:32:38.300Z,1015.59
2022-08-24T06:33:38.284Z,1015.65
2022-08-24T06:34:38.271Z,1015.60
2022-08-24T06:35:38.288Z,1015.57
2022-08-24T06:36:40.030Z,1015.59
2022-08-24T06:37:38.246Z,1015.58
2022-08-24T06:38:38.231Z,1015.57
2022-08-24T06:39:38.225Z,1015.59
2022-08-24T06:40:44.874Z,1015.61
2022-08-24T06:41:38.382Z,1015.58
2022-08-24T06:42:38.188Z,1015.64
2022-08-24T06:43:38.186Z,1015.65
2022-08-24T06:44:38.164Z,1015.66
2022-08-24T06:45:38.183Z,1015.68
2022-08-24T06:46:39.238Z,1015.70
2022-08-24T06:47:38.132Z,1015.69
2022-08-24T06:48:38.121Z,1015.69
2022-08-24T06:49:38.139Z,1015.72
2022-08-24T06:50:38.100Z,1015.71
2022-08-24T06:51:38.100Z,1015.73
2022-08-24T06:52:38.071Z,1015.73
2022-08-24T06:53:38.065Z,1015.72
2022-08-24T06:54:38.585Z,1015.73
2022-08-24T06:55:38.071Z,1015.74
2022-08-24T06:56:38.045Z,1015.72
2022-08-24T06:57:38.022Z,1015.70
2022-08-24T06:58:38.017Z,1015.75
2022-08-24T06:59:38.023Z,1015.75
2022-08-24T07:00:38.231Z,1015.74
2022-08-24T07:01:38.075Z,1015.78
2022-08-24T07:02:38.133Z,1015.79
2022-08-24T07:03:37.984Z,1015.81
2022-08-24T07:04:37.939Z,1015.84
2022-08-24T07:05:37.933Z,1015.77
2022-08-24T07:06:37.927Z,1015.79
2022-08-24T07:07:37.908Z,1015.81
2022-08-24T07:08:37.917Z,1015.83
2022-08-24T07:09:37.888Z,1015.83
2022-08-24T07:10:37.878Z,1015.86
2022-08-24T07:11:37.901Z,1015.85
2022-08-24T07:12:37.876Z,1015.86
2022-08-24T07:13:37.840Z,1015.82
2022-08-24T07:14:37.827Z,1015.81
2022-08-24T07:15:37.887Z,1015.85
2022-08-24T07:16:37.803Z,1015.79
2022-08-24T07:17:38.243Z,1015.80
2022-08-24T07:18:37.785Z,1015.81
2022-08-24T07:19:37.773Z,1015.79
2022-08-24T07:20:37.762Z,1015.79
2022-08-24T07:21:37.749Z,1015.79
2022-08-24T07:22:37.755Z,1015.82
2022-08-24T07:23:42.073Z,1015.82
2022-08-24T07:24:38.718Z,1015.81
2022-08-24T07:25:37.723Z,1015.82
2022-08-24T07:26:37.713Z,1015.83
2022-08-24T07:27:37.688Z,1015.83
2022-08-24T07:28:37.671Z,1015.84
2022-08-24T07:29:50.367Z,1015.88
2022-08-24T07:30:38.747Z,1015.87
2022-08-24T07:31:37.736Z,1015.93
2022-08-24T07:32:38.096Z,1015.94
2022-08-24T07:33:37.627Z,1015.96
2022-08-24T07:34:37.637Z,1015.91
2022-08-24T07:35:37.593Z,1015.99
2022-08-24T07:36:41.024Z,1016.00
2022-08-24T07:37:41.383Z,1015.99
2022-08-24T07:38:37.565Z,1015.99
2022-08-24T07:39:37.554Z,1016.01
2022-08-24T07:41:01.779Z,1016.00
2022-08-24T07:41:51.262Z,1015.98
2022-08-24T07:42:38.527Z,1016.00
2022-08-24T07:43:38.171Z,1015.94
2022-08-24T07:44:38.495Z,1015.98
2022-08-24T07:45:39.162Z,1016.06
2022-08-24T07:46:37.583Z,1016.17
2022-08-24T07:47:41.052Z,1016.27
2022-08-24T07:48:38.448Z,1016.22
2022-08-24T07:49:39.624Z,1016.17
2022-08-24T07:50:37.437Z,1016.22
2022-08-24T07:51:38.133Z,1016.24
2022-08-24T07:52:38.584Z,1016.17
2022-08-24T07:53:52.607Z,1016.12
2022-08-24T07:54:38.406Z,1015.93
2022-08-24T07:55:45.888Z,1016.05
2022-08-24T07:56:38.363Z,1015.96
2022-08-24T07:57:37.363Z,1016.25
2022-08-24T07:58:37.385Z,1016.13
2022-08-24T07:59:37.339Z,1016.33
2022-08-24T08:00:37.331Z,1016.28
2022-08-24T08:01:37.385Z,1016.08
2022-08-24T08:02:37.333Z,1016.12
2022-08-24T08:03:37.310Z,1016.21
2022-08-24T08:04:38.083Z,1016.23
2022-08-24T08:05:37.269Z,1016.20
2022-08-24T08:06:37.260Z,1016.37
2022-08-24T08:07:37.250Z,1016.10
2022-08-24T08:08:38.038Z,1016.12
2022-08-24T08:09:37.226Z,1016.11
2022-08-24T08:10:37.217Z,1016.31
2022-08-24T08:11:37.214Z,1016.24
2022-08-24T08:12:37.211Z,1016.11
2022-08-24T08:13:37.277Z,1016.15
2022-08-24T08:14:37.173Z,1016.13
2022-08-24T08:15:37.268Z,1016.06
2022-08-24T08:16:37.162Z,1016.07
2022-08-24T08:17:42.490Z,1016.16
2022-08-24T08:18:37.134Z,1016.17
2022-08-24T08:19:37.134Z,1016.12
2022-08-24T08:20:37.118Z,1016.08
2022-08-24T08:21:37.173Z,1016.09
2022-08-24T08:22:37.093Z,1016.08
2022-08-24T08:23:37.105Z,1016.11
2022-08-24T08:24:37.087Z,1016.52
2022-08-24T08:25:37.101Z,1016.33
2022-08-24T08:26:37.073Z,1016.47
2022-08-24T08:27:37.125Z,1016.49
2022-08-24T08:28:37.670Z,1016.17
2022-08-24T08:29:37.009Z,1016.30
2022-08-24T08:30:37.062Z,1016.12
2022-08-24T08:31:38.546Z,1016.35
2022-08-24T08:32:36.983Z,1016.20
2022-08-24T08:33:36.977Z,1016.15
2022-08-24T08:34:36.962Z,1016.32
2022-08-24T08:35:36.950Z,1016.23
2022-08-24T08:36:36.949Z,1016.17
2022-08-24T08:38:37.595Z,1016.54
2022-08-24T08:39:36.909Z,1016.35
2022-08-24T08:40:36.900Z,1016.11
2022-08-24T08:41:36.886Z,1016.13
2022-08-24T08:42:36.923Z,1016.14
2022-08-24T08:43:36.864Z,1016.20
2022-08-24T08:44:36.858Z,1016.17
2022-08-24T08:45:36.844Z,1016.24
2022-08-24T08:46:40.701Z,1016.20
2022-08-24T08:47:36.820Z,1016.21
2022-08-24T08:48:36.815Z,1016.24
2022-08-24T08:49:36.830Z,1016.24
2022-08-24T08:50:36.795Z,1016.23
2022-08-24T08:51:36.779Z,1016.23
2022-08-24T08:52:39.647Z,1016.26
2022-08-24T08:53:36.804Z,1016.31
2022-08-24T08:54:36.748Z,1016.32
2022-08-24T08:55:36.736Z,1016.31
2022-08-24T08:56:36.729Z,1016.38
2022-08-24T08:57:36.719Z,1016.34
2022-08-24T08:58:36.732Z,1016.35
2022-08-24T08:59:36.702Z,1016.45
2022-08-24T09:00:36.706Z,1016.36
2022-08-24T09:01:46.484Z,1016.42
2022-08-24T09:02:37.666Z,1016.38
2022-08-24T09:03:36.655Z,1016.38
2022-08-24T09:04:36.736Z,1016.33
2022-08-24T09:05:36.639Z,1016.36
2022-08-24T09:06:36.617Z,1016.35
2022-08-24T09:07:36.613Z,1016.35
2022-08-24T09:08:36.633Z,1016.29
2022-08-24T09:09:36.587Z,1016.38
2022-08-24T09:10:36.582Z,1016.35
2022-08-24T09:11:36.569Z,1016.31
2022-08-24T09:12:43.479Z,1016.31
2022-08-24T09:13:36.545Z,1016.32
2022-08-24T09:14:36.553Z,1016.37
2022-08-24T09:15:36.532Z,1016.33
2022-08-24T09:16:36.633Z,1016.33
2022-08-24T09:17:36.510Z,1016.31
2022-08-24T09:18:36.490Z,1016.36
2022-08-24T09:19:36.480Z,1016.34
2022-08-24T09:20:36.471Z,1016.35
2022-08-24T09:21:36.457Z,1016.33
2022-08-24T09:22:36.483Z,1016.34
2022-08-24T09:23:36.442Z,1016.30
2022-08-24T09:24:36.435Z,1016.33
2022-08-24T09:25:36.412Z,1016.29
2022-08-24T09:26:36.399Z,1016.36
2022-08-24T09:27:36.861Z,1016.37
2022-08-24T09:28:36.378Z,1016.35
2022-08-24T09:29:36.548Z,1016.34
2022-08-24T09:30:36.413Z,1016.35
2022-08-24T09:31:38.981Z,1016.29
2022-08-24T09:32:36.348Z,1016.31
2022-08-24T09:33:36.469Z,1016.30
2022-08-24T09:34:36.322Z,1016.41
2022-08-24T09:35:36.318Z,1016.40
2022-08-24T09:36:36.326Z,1016.39
2022-08-24T09:37:36.788Z,1016.39
2022-08-24T09:38:36.284Z,1016.39
2022-08-24T09:39:36.262Z,1016.37
2022-08-24T09:40:36.250Z,1016.36
2022-08-24T09:41:36.277Z,1016.35
2022-08-24T09:42:36.232Z,1016.35
2022-08-24T09:43:36.215Z,1016.36
2022-08-24T09:44:36.205Z,1016.41
2022-08-24T09:45:36.298Z,1016.35
2022-08-24T09:46:36.183Z,1016.38
2022-08-24T09:47:36.176Z,1016.42
2022-08-24T09:48:36.173Z,1016.38
2022-08-24T09:49:36.161Z,1016.38
2022-08-24T09:50:36.554Z,1016.39
2022-08-24T09:51:36.167Z,1016.32
2022-08-24T09:52:36.131Z,1016.35
2022-08-24T09:53:36.103Z,1016.33
2022-08-24T09:54:36.115Z,1016.33
2022-08-24T09:55:36.087Z,1016.34
2022-08-24T09:56:36.079Z,1016.30
2022-08-24T09:57:59.569Z,1016.35
2022-08-24T09:58:37.071Z,1016.34
2022-08-24T09:59:36.583Z,1016.37
2022-08-24T10:00:36.031Z,1016.38
2022-08-24T10:01:36.115Z,1016.31
2022-08-24T10:02:36.088Z,1016.32
2022-08-24T10:03:38.463Z,1016.34
2022-08-24T10:04:36.177Z,1016.30
2022-08-24T10:05:36.870Z,1016.34
2022-08-24T10:06:36.166Z,1016.33
2022-08-24T10:08:56.699Z,1016.21
2022-08-24T10:09:56.669Z,1016.20
2022-08-24T10:10:56.651Z,1016.22
2022-08-24T10:11:56.640Z,1016.22
2022-08-24T10:12:56.740Z,1016.21
2022-08-24T10:13:56.624Z,1016.20
2022-08-24T10:14:56.626Z,1016.28
2022-08-24T10:15:56.602Z,1016.24
2022-08-24T10:16:56.637Z,1016.21
2022-08-24T10:17:56.599Z,1016.26
2022-08-24T10:18:56.564Z,1016.25
2022-08-24T10:19:56.554Z,1016.21
2022-08-24T10:20:56.534Z,1016.22
2022-08-24T10:21:56.551Z,1016.70
2022-08-24T10:22:56.516Z,1016.26
2022-08-24T10:23:56.505Z,1016.53
2022-08-24T10:24:56.499Z,1016.69
2022-08-24T10:25:56.486Z,1016.62
2022-08-24T10:26:56.491Z,1016.61
2022-08-24T10:27:56.465Z,1016.54
2022-08-24T10:28:56.454Z,1016.57
2022-08-24T10:29:56.444Z,1016.64
2022-08-24T10:30:59.042Z,1016.56
2022-08-24T10:31:56.509Z,1016.63
2022-08-24T10:32:56.421Z,1016.66
2022-08-24T10:33:57.189Z,1016.31
2022-08-24T10:34:56.409Z,1016.35
2022-08-24T10:35:56.385Z,1016.53
2022-08-24T10:36:56.386Z,1016.52
2022-08-24T10:37:56.367Z,1016.10
2022-08-24T10:38:56.359Z,1016.09
2022-08-24T10:40:01.398Z,1016.42
2022-08-24T10:40:59.218Z,1016.63
2022-08-24T10:41:56.325Z,1016.06
2022-08-24T10:42:56.312Z,1016.11
2022-08-24T10:43:56.299Z,1016.16
2022-08-24T10:44:56.316Z,1016.17
2022-08-24T10:45:56.318Z,1016.12
2022-08-24T10:46:58.775Z,1016.11
2022-08-24T10:47:56.264Z,1016.11
2022-08-24T10:48:56.283Z,1016.53
2022-08-24T10:49:56.255Z,1016.53
2022-08-24T10:50:56.329Z,1016.57
2022-08-24T10:51:56.221Z,1016.23
2022-08-24T10:52:56.237Z,1016.55
2022-08-24T10:53:56.224Z,1016.64
2022-08-24T10:54:56.194Z,1016.57
2022-08-24T10:55:56.191Z,1016.59
2022-08-24T10:56:56.207Z,1016.06
2022-08-24T10:57:56.187Z,1016.33
2022-08-24T10:58:56.159Z,1016.57
2022-08-24T10:59:56.191Z,1015.96
2022-08-24T11:00:56.189Z,1016.26
2022-08-24T11:01:56.154Z,1016.02
2022-08-24T11:02:56.120Z,1016.57
2022-08-24T11:03:56.875Z,1016.01
2022-08-24T11:04:56.098Z,1016.02
2022-08-24T11:05:56.090Z,1016.56
2022-08-24T11:06:56.077Z,1016.54
2022-08-24T11:07:56.201Z,1016.52
2022-08-24T11:08:56.074Z,1016.54
2022-08-24T11:09:56.052Z,1015.98
2022-08-24T11:10:56.040Z,1015.92
2022-08-24T11:11:56.219Z,1015.91
2022-08-24T11:12:59.084Z,1015.98
2022-08-24T11:13:56.010Z,1015.97
2022-08-24T11:14:56.001Z,1015.89
2022-08-24T11:15:56.038Z,1015.82
2022-08-24T11:16:58.068Z,1015.88
2022-08-24T11:17:56.002Z,1015.88
2022-08-24T11:18:55.972Z,1015.86
2022-08-24T11:19:55.955Z,1015.89
2022-08-24T11:20:55.948Z,1015.90
2022-08-24T11:21:55.932Z,1015.84
2022-08-24T11:22:55.943Z,1015.87
2022-08-24T11:23:55.914Z,1015.94
2022-08-24T11:24:55.977Z,1015.92
2022-08-24T11:25:55.892Z,1015.88
2022-08-24T11:26:55.900Z,1016.03
2022-08-24T11:27:55.875Z,1016.37
2022-08-24T11:28:55.916Z,1016.40
2022-08-24T11:29:55.849Z,1016.40
2022-08-24T11:30:55.869Z,1016.36
2022-08-24T11:31:55.924Z,1015.86
2022-08-24T11:32:55.817Z,1016.34
2022-08-24T11:33:55.814Z,1015.84
2022-08-24T11:34:55.804Z,1016.35
2022-08-24T11:35:55.811Z,1016.22
2022-08-24T11:36:55.777Z,1016.31
2022-08-24T11:37:55.770Z,1016.29
2022-08-24T11:38:55.757Z,1016.30
2022-08-24T11:39:55.790Z,1016.30
2022-08-24T11:40:55.758Z,1016.34
2022-08-24T11:41:55.735Z,1016.30
2022-08-24T11:42:55.718Z,1016.30
2022-08-24T11:43:55.715Z,1016.33
2022-08-24T11:44:55.701Z,1016.33
2022-08-24T11:45:55.713Z,1016.35
2022-08-24T11:46:55.779Z,1016.34
2022-08-24T11:47:55.738Z,1016.38
2022-08-24T11:48:55.663Z,1016.04
2022-08-24T11:49:55.683Z,1016.35
2022-08-24T11:50:55.642Z,1016.31
2022-08-24T11:51:55.639Z,1016.32
2022-08-24T11:52:55.629Z,1016.29
2022-08-24T11:53:55.620Z,1016.14
2022-08-24T11:54:55.619Z,1015.92
2022-08-24T11:55:57.215Z,1015.90
2022-08-24T11:56:55.593Z,1015.77
2022-08-24T11:57:55.579Z,1015.71
2022-08-24T11:59:01.463Z,1015.70
2022-08-24T11:59:55.560Z,1015.69
2022-08-24T12:00:55.593Z,1015.62
2022-08-24T12:01:55.709Z,1015.69
2022-08-24T12:02:56.034Z,1015.67
2022-08-24T12:03:55.522Z,1015.69
2022-08-24T12:04:55.509Z,1015.70
2022-08-24T12:05:55.502Z,1015.72
2022-08-24T12:06:55.959Z,1015.70
2022-08-24T12:07:55.499Z,1015.66
2022-08-24T12:08:55.471Z,1015.70